aviador You're here:

ZYTX Decoded Metar

SHENYANG/TAOKIAN in CHINA
Report Time2017-12-15 13:30:00
UTC Time2017-12-15 14:09:39
Flight Rules mvfr MVFR
WindVRB at 2 kt
Visibility6000 m
Phenomena:N/A
Clouds:N/A
Expected CloudBase > 2,400 ft AGL from Temp-Dew spread
CeilingNone
Temp-14°C (ISA -29)
Dew Point-20°C (61% RH)
AAT-18.3°C
QNH1030 hPa
Density Alt-4,085 ft
Elevation115 ft
Report Wrong Elevation
Raw Report
METAR ZYTX 151330Z VRB01MPS 6000 NSC M14/M20 Q1030 NOSIG=####018001598####
SPZZ40 KAWN 151344 RRN

Extra information for ZYTX:More info

Metar Taf Metar & Taf Last 4 Metars F.Rules Stats Wind Profile Meteogram Temp Stats Airport Information Weather charts Add Link Nearby VenuesMetar ALERT Operation Metar Decoded Social comments